KFBG/FBG METAR and TAF weather

Enter ICAO airport designator
Station Type Date Time Source
KFBG METAR 2020/01/18 12:56 UTC NOAA

KFBG 181256Z AUTO 09004KT 10SM BKN100 OVC140 03/M04 A3053 RMK AO2 SLP343 T00261042 $


Station Type Date Time Source
KFBG Decoded METAR 2020/01/18 12:56 UTC NOAA

Fort Bragg / Simmons Army Airfield, NC, United States (KFBG) 35-08N 078-56W 74M
Jan 18, 2020 - 07:56 AM EST / 2020.01.18 1256 UTC
Wind: from the E (090 degrees) at 5 MPH (4 KT):0
Visibility: 10 mile(s):0
Sky conditions: overcast
Temperature: 36.7 F (2.6 C)
Dew Point: 24.4 F (-4.2 C)
Relative Humidity: 60%
Pressure (altimeter): 30.53 in. Hg (1033 hPa)
ob: KFBG 181256Z AUTO 09004KT 10SM BKN100 OVC140 03/M04 A3053 RMK AO2 SLP343 T00261042
cycle: 13

Station Type Date Time Source
KFBG TAF 2020/01/18 10:07 UTC NOAA

TAF KFBG 181000Z 1810/1916 09009KT 9999 SCT100 BKN200 QNH3052INS
BECMG 1814/1815 09012KT 9999 SCT030 BKN100 OVC200 QNH3045INS
BECMG 1820/1821 12012KT 9999 VCSH BKN020 OVC100 WS015/20035KT QNH3034INS
BECMG 1822/1823 15015G25KT 6000 -SHRA FEW005 BKN010 OVC040 WS020/19040KT QNH3021INS
TEMPO 1903/1909 4800 SHRA OVC007
BECMG 1908/1909 24010G15KT 9999 NSW OVC010 WS015/26035KT QNH3014INS
BECMG 1911/1912 27009KT 9999 BKN015 OVC040 QNH3017INS TX14/1820Z TN01/1811Z

Example: see airport list